sensor_id;sensor_type;location;lat;lon;timestamp;P1;durP1;ratioP1;P2;durP2;ratioP2
39880;SDS011;25554;44.954;10.068;2022-11-03T00:04:23;75.38;;;32.92;;
39880;SDS011;25554;44.954;10.068;2022-11-03T00:09:17;71.53;;;32.05;;
39880;SDS011;25554;44.954;10.068;2022-11-03T00:11:45;71.97;;;31.83;;
39880;SDS011;25554;44.954;10.068;2022-11-03T00:14:12;73.45;;;32.50;;
39880;SDS011;25554;44.954;10.068;2022-11-03T00:16:39;79.72;;;33.45;;
39880;SDS011;25554;44.954;10.068;2022-11-03T00:19:06;79.82;;;34.67;;
39880;SDS011;25554;44.954;10.068;2022-11-03T00:21:34;74.93;;;33.88;;
39880;SDS011;25554;44.954;10.068;2022-11-03T00:26:28;81.50;;;34.45;;
39880;SDS011;25554;44.954;10.068;2022-11-03T00:28:56;86.45;;;34.85;;
39880;SDS011;25554;44.954;10.068;2022-11-03T00:31:27;84.20;;;35.95;;
39880;SDS011;25554;44.954;10.068;2022-11-03T00:33:56;89.93;;;36.90;;
39880;SDS011;25554;44.954;10.068;2022-11-03T00:36:25;86.82;;;35.42;;
39880;SDS011;25554;44.954;10.068;2022-11-03T00:38:53;84.30;;;34.17;;
39880;SDS011;25554;44.954;10.068;2022-11-03T00:41:20;74.45;;;33.58;;
39880;SDS011;25554;44.954;10.068;2022-11-03T00:43:49;76.10;;;32.42;;
39880;SDS011;25554;44.954;10.068;2022-11-03T00:46:17;76.15;;;33.42;;
39880;SDS011;25554;44.954;10.068;2022-11-03T00:48:45;81.35;;;34.05;;
39880;SDS011;25554;44.954;10.068;2022-11-03T00:51:12;69.90;;;31.23;;
39880;SDS011;25554;44.954;10.068;2022-11-03T00:53:41;67.93;;;32.17;;
39880;SDS011;25554;44.954;10.068;2022-11-03T00:56:13;75.25;;;32.88;;
39880;SDS011;25554;44.954;10.068;2022-11-03T00:58:44;73.70;;;32.25;;
39880;SDS011;25554;44.954;10.068;2022-11-03T01:01:15;71.55;;;32.42;;
39880;SDS011;25554;44.954;10.068;2022-11-03T01:03:47;71.80;;;32.40;;
39880;SDS011;25554;44.954;10.068;2022-11-03T01:09:19;75.78;;;32.58;;
39880;SDS011;25554;44.954;10.068;2022-11-03T01:14:35;85.15;;;34.90;;
39880;SDS011;25554;44.954;10.068;2022-11-03T01:17:05;82.82;;;33.97;;
39880;SDS011;25554;44.954;10.068;2022-11-03T01:19:32;79.93;;;33.55;;
39880;SDS011;25554;44.954;10.068;2022-11-03T01:21:59;79.60;;;34.95;;
39880;SDS011;25554;44.954;10.068;2022-11-03T01:26:52;74.28;;;33.40;;
39880;SDS011;25554;44.954;10.068;2022-11-03T01:31:44;74.40;;;33.55;;
39880;SDS011;25554;44.954;10.068;2022-11-03T01:36:42;71.80;;;30.10;;
39880;SDS011;25554;44.954;10.068;2022-11-03T01:39:10;88.00;;;35.92;;
39880;SDS011;25554;44.954;10.068;2022-11-03T01:41:37;74.30;;;33.25;;
39880;SDS011;25554;44.954;10.068;2022-11-03T01:46:33;78.47;;;34.78;;
39880;SDS011;25554;44.954;10.068;2022-11-03T01:49:06;81.25;;;33.80;;
39880;SDS011;25554;44.954;10.068;2022-11-03T01:51:37;87.38;;;35.28;;
39880;SDS011;25554;44.954;10.068;2022-11-03T01:54:05;83.25;;;35.38;;
39880;SDS011;25554;44.954;10.068;2022-11-03T01:56:35;75.75;;;32.13;;
39880;SDS011;25554;44.954;10.068;2022-11-03T01:59:05;75.43;;;31.63;;
39880;SDS011;25554;44.954;10.068;2022-11-03T02:01:32;73.55;;;32.38;;
39880;SDS011;25554;44.954;10.068;2022-11-03T02:04:04;81.20;;;34.28;;
39880;SDS011;25554;44.954;10.068;2022-11-03T02:06:34;75.40;;;34.25;;
39880;SDS011;25554;44.954;10.068;2022-11-03T02:09:03;76.05;;;32.15;;
39880;SDS011;25554;44.954;10.068;2022-11-03T02:11:32;78.85;;;34.58;;
39880;SDS011;25554;44.954;10.068;2022-11-03T02:14:18;70.00;;;31.60;;
39880;SDS011;25554;44.954;10.068;2022-11-03T02:19:34;69.38;;;29.92;;
39880;SDS011;25554;44.954;10.068;2022-11-03T02:23:03;72.03;;;30.65;;
39880;SDS011;25554;44.954;10.068;2022-11-03T02:27:41;70.05;;;31.48;;
39880;SDS011;25554;44.954;10.068;2022-11-03T02:30:08;68.85;;;32.30;;
39880;SDS011;25554;44.954;10.068;2022-11-03T02:32:40;77.20;;;32.92;;
39880;SDS011;25554;44.954;10.068;2022-11-03T02:35:36;75.82;;;31.45;;
39880;SDS011;25554;44.954;10.068;2022-11-03T02:38:08;70.50;;;31.63;;
39880;SDS011;25554;44.954;10.068;2022-11-03T02:40:40;67.97;;;31.70;;
39880;SDS011;25554;44.954;10.068;2022-11-03T02:43:10;75.03;;;33.72;;
39880;SDS011;25554;44.954;10.068;2022-11-03T02:45:39;76.80;;;33.25;;
39880;SDS011;25554;44.954;10.068;2022-11-03T02:48:06;74.80;;;34.00;;
39880;SDS011;25554;44.954;10.068;2022-11-03T02:50:33;68.18;;;32.10;;
39880;SDS011;25554;44.954;10.068;2022-11-03T03:00:31;77.43;;;33.08;;
39880;SDS011;25554;44.954;10.068;2022-11-03T03:08:15;67.63;;;32.95;;
39880;SDS011;25554;44.954;10.068;2022-11-03T03:10:42;72.53;;;33.33;;
39880;SDS011;25554;44.954;10.068;2022-11-03T03:13:12;83.85;;;35.88;;
39880;SDS011;25554;44.954;10.068;2022-11-03T03:23:12;88.22;;;36.28;;
39880;SDS011;25554;44.954;10.068;2022-11-03T03:28:37;85.90;;;35.13;;
39880;SDS011;25554;44.954;10.068;2022-11-03T03:31:09;82.25;;;35.15;;
39880;SDS011;25554;44.954;10.068;2022-11-03T03:33:38;88.03;;;36.83;;
39880;SDS011;25554;44.954;10.068;2022-11-03T03:36:08;89.32;;;38.10;;
39880;SDS011;25554;44.954;10.068;2022-11-03T03:38:39;88.22;;;35.22;;
39880;SDS011;25554;44.954;10.068;2022-11-03T03:41:09;78.30;;;34.58;;
39880;SDS011;25554;44.954;10.068;2022-11-03T03:43:50;79.47;;;34.47;;
39880;SDS011;25554;44.954;10.068;2022-11-03T03:46:19;80.07;;;34.30;;
39880;SDS011;25554;44.954;10.068;2022-11-03T03:48:48;82.85;;;34.97;;
39880;SDS011;25554;44.954;10.068;2022-11-03T03:53:42;79.13;;;35.58;;
39880;SDS011;25554;44.954;10.068;2022-11-03T03:58:35;73.70;;;33.38;;
39880;SDS011;25554;44.954;10.068;2022-11-03T04:03:28;89.60;;;34.85;;
39880;SDS011;25554;44.954;10.068;2022-11-03T04:05:54;80.70;;;35.53;;
39880;SDS011;25554;44.954;10.068;2022-11-03T04:10:48;76.25;;;34.47;;
39880;SDS011;25554;44.954;10.068;2022-11-03T04:13:33;74.57;;;33.85;;
39880;SDS011;25554;44.954;10.068;2022-11-03T04:16:18;95.85;;;39.00;;
39880;SDS011;25554;44.954;10.068;2022-11-03T04:19:03;93.63;;;35.67;;
39880;SDS011;25554;44.954;10.068;2022-11-03T04:21:49;87.65;;;36.40;;
39880;SDS011;25554;44.954;10.068;2022-11-03T04:24:34;89.93;;;37.53;;
39880;SDS011;25554;44.954;10.068;2022-11-03T04:29:30;93.00;;;37.42;;
39880;SDS011;25554;44.954;10.068;2022-11-03T04:34:23;81.57;;;35.30;;
39880;SDS011;25554;44.954;10.068;2022-11-03T04:36:49;85.60;;;36.67;;
39880;SDS011;25554;44.954;10.068;2022-11-03T04:41:45;77.90;;;34.45;;
39880;SDS011;25554;44.954;10.068;2022-11-03T04:44:15;73.43;;;34.03;;
39880;SDS011;25554;44.954;10.068;2022-11-03T04:46:42;79.25;;;35.55;;
39880;SDS011;25554;44.954;10.068;2022-11-03T04:49:19;74.30;;;34.53;;
39880;SDS011;25554;44.954;10.068;2022-11-03T04:51:47;72.70;;;33.40;;
39880;SDS011;25554;44.954;10.068;2022-11-03T04:56:46;91.93;;;38.20;;
39880;SDS011;25554;44.954;10.068;2022-11-03T05:01:39;82.32;;;35.60;;
39880;SDS011;25554;44.954;10.068;2022-11-03T05:04:13;75.97;;;36.33;;
39880;SDS011;25554;44.954;10.068;2022-11-03T05:06:48;77.07;;;34.33;;
39880;SDS011;25554;44.954;10.068;2022-11-03T05:09:19;80.63;;;34.45;;
39880;SDS011;25554;44.954;10.068;2022-11-03T05:11:53;98.90;;;39.15;;
39880;SDS011;25554;44.954;10.068;2022-11-03T05:16:52;76.07;;;32.60;;
39880;SDS011;25554;44.954;10.068;2022-11-03T05:19:21;81.45;;;36.45;;
39880;SDS011;25554;44.954;10.068;2022-11-03T05:21:51;83.63;;;36.55;;
39880;SDS011;25554;44.954;10.068;2022-11-03T05:24:21;79.82;;;34.72;;
39880;SDS011;25554;44.954;10.068;2022-11-03T05:26:51;80.90;;;36.58;;
39880;SDS011;25554;44.954;10.068;2022-11-03T05:29:31;82.75;;;36.33;;
39880;SDS011;25554;44.954;10.068;2022-11-03T05:32:00;87.88;;;38.00;;
39880;SDS011;25554;44.954;10.068;2022-11-03T05:39:35;76.05;;;33.95;;
39880;SDS011;25554;44.954;10.068;2022-11-03T05:42:15;72.53;;;33.35;;
39880;SDS011;25554;44.954;10.068;2022-11-03T05:44:46;92.30;;;37.30;;
39880;SDS011;25554;44.954;10.068;2022-11-03T05:47:21;74.60;;;34.55;;
39880;SDS011;25554;44.954;10.068;2022-11-03T05:49:51;80.75;;;33.58;;
39880;SDS011;25554;44.954;10.068;2022-11-03T05:52:21;75.70;;;33.60;;
39880;SDS011;25554;44.954;10.068;2022-11-03T05:54:50;77.22;;;34.38;;
39880;SDS011;25554;44.954;10.068;2022-11-03T05:57:18;75.97;;;35.85;;
39880;SDS011;25554;44.954;10.068;2022-11-03T06:02:32;72.32;;;33.15;;
39880;SDS011;25554;44.954;10.068;2022-11-03T06:05:09;77.07;;;34.45;;
39880;SDS011;25554;44.954;10.068;2022-11-03T06:07:40;84.63;;;36.15;;
39880;SDS011;25554;44.954;10.068;2022-11-03T06:12:45;75.40;;;32.85;;
39880;SDS011;25554;44.954;10.068;2022-11-03T06:17:58;74.93;;;34.97;;
39880;SDS011;25554;44.954;10.068;2022-11-03T06:20:26;74.35;;;32.90;;
39880;SDS011;25554;44.954;10.068;2022-11-03T06:22:53;70.35;;;33.53;;
39880;SDS011;25554;44.954;10.068;2022-11-03T06:25:39;72.10;;;34.30;;
39880;SDS011;25554;44.954;10.068;2022-11-03T06:28:10;74.10;;;34.07;;
39880;SDS011;25554;44.954;10.068;2022-11-03T06:30:42;75.15;;;36.42;;
39880;SDS011;25554;44.954;10.068;2022-11-03T06:33:24;80.03;;;35.25;;
39880;SDS011;25554;44.954;10.068;2022-11-03T06:35:54;73.30;;;35.25;;
39880;SDS011;25554;44.954;10.068;2022-11-03T06:38:26;76.43;;;35.20;;
39880;SDS011;25554;44.954;10.068;2022-11-03T06:40:56;73.25;;;34.03;;
39880;SDS011;25554;44.954;10.068;2022-11-03T06:43:30;77.35;;;34.15;;
39880;SDS011;25554;44.954;10.068;2022-11-03T06:46:11;83.97;;;41.00;;
39880;SDS011;25554;44.954;10.068;2022-11-03T06:48:49;75.75;;;35.53;;
39880;SDS011;25554;44.954;10.068;2022-11-03T06:51:21;68.97;;;33.10;;
39880;SDS011;25554;44.954;10.068;2022-11-03T06:53:52;72.90;;;36.00;;
39880;SDS011;25554;44.954;10.068;2022-11-03T06:56:30;73.05;;;34.72;;
39880;SDS011;25554;44.954;10.068;2022-11-03T06:58:59;76.75;;;34.35;;
39880;SDS011;25554;44.954;10.068;2022-11-03T07:04:00;74.28;;;34.03;;
39880;SDS011;25554;44.954;10.068;2022-11-03T07:06:30;67.05;;;32.05;;
39880;SDS011;25554;44.954;10.068;2022-11-03T07:09:01;71.43;;;33.13;;
39880;SDS011;25554;44.954;10.068;2022-11-03T07:11:34;79.15;;;34.60;;
39880;SDS011;25554;44.954;10.068;2022-11-03T07:14:10;75.50;;;34.33;;
39880;SDS011;25554;44.954;10.068;2022-11-03T07:16:43;69.28;;;33.15;;
39880;SDS011;25554;44.954;10.068;2022-11-03T07:19:17;87.25;;;37.70;;
39880;SDS011;25554;44.954;10.068;2022-11-03T07:24:21;76.47;;;34.63;;
39880;SDS011;25554;44.954;10.068;2022-11-03T07:29:37;84.07;;;36.15;;
39880;SDS011;25554;44.954;10.068;2022-11-03T07:32:04;69.43;;;34.40;;
39880;SDS011;25554;44.954;10.068;2022-11-03T07:34:35;72.55;;;33.92;;
39880;SDS011;25554;44.954;10.068;2022-11-03T07:39:31;79.03;;;34.50;;
39880;SDS011;25554;44.954;10.068;2022-11-03T07:42:07;70.60;;;34.85;;
39880;SDS011;25554;44.954;10.068;2022-11-03T07:48:17;68.63;;;32.45;;
39880;SDS011;25554;44.954;10.068;2022-11-03T07:50:44;73.05;;;33.38;;
39880;SDS011;25554;44.954;10.068;2022-11-03T07:53:18;81.15;;;37.92;;
39880;SDS011;25554;44.954;10.068;2022-11-03T07:56:17;79.55;;;37.08;;
39880;SDS011;25554;44.954;10.068;2022-11-03T07:58:44;62.33;;;31.13;;
39880;SDS011;25554;44.954;10.068;2022-11-03T08:01:17;65.82;;;31.55;;
39880;SDS011;25554;44.954;10.068;2022-11-03T08:03:58;76.45;;;36.20;;
39880;SDS011;25554;44.954;10.068;2022-11-03T08:06:29;74.55;;;34.53;;
39880;SDS011;25554;44.954;10.068;2022-11-03T08:11:21;71.47;;;33.28;;
39880;SDS011;25554;44.954;10.068;2022-11-03T08:13:49;65.22;;;31.13;;
39880;SDS011;25554;44.954;10.068;2022-11-03T08:16:16;67.15;;;30.42;;
39880;SDS011;25554;44.954;10.068;2022-11-03T08:18:43;66.85;;;32.17;;
39880;SDS011;25554;44.954;10.068;2022-11-03T08:23:36;53.75;;;26.35;;
39880;SDS011;25554;44.954;10.068;2022-11-03T08:26:03;59.47;;;29.10;;
39880;SDS011;25554;44.954;10.068;2022-11-03T08:28:29;47.42;;;25.83;;
39880;SDS011;25554;44.954;10.068;2022-11-03T08:30:56;58.50;;;27.02;;
39880;SDS011;25554;44.954;10.068;2022-11-03T08:33:32;51.70;;;26.17;;
39880;SDS011;25554;44.954;10.068;2022-11-03T08:35:59;52.97;;;27.10;;
39880;SDS011;25554;44.954;10.068;2022-11-03T08:38:27;55.20;;;28.23;;
39880;SDS011;25554;44.954;10.068;2022-11-03T08:40:54;51.40;;;26.40;;
39880;SDS011;25554;44.954;10.068;2022-11-03T08:43:21;49.67;;;26.20;;
39880;SDS011;25554;44.954;10.068;2022-11-03T08:45:47;59.47;;;30.40;;
39880;SDS011;25554;44.954;10.068;2022-11-03T08:48:19;54.50;;;29.20;;
39880;SDS011;25554;44.954;10.068;2022-11-03T08:50:46;57.53;;;27.23;;
39880;SDS011;25554;44.954;10.068;2022-11-03T08:53:17;56.60;;;27.88;;
39880;SDS011;25554;44.954;10.068;2022-11-03T08:55:44;56.72;;;27.90;;
39880;SDS011;25554;44.954;10.068;2022-11-03T08:58:11;53.85;;;27.48;;
39880;SDS011;25554;44.954;10.068;2022-11-03T09:00:38;62.53;;;28.65;;
39880;SDS011;25554;44.954;10.068;2022-11-03T09:05:30;61.38;;;29.08;;
39880;SDS011;25554;44.954;10.068;2022-11-03T09:10:24;59.67;;;29.87;;
39880;SDS011;25554;44.954;10.068;2022-11-03T09:12:51;52.33;;;27.65;;
39880;SDS011;25554;44.954;10.068;2022-11-03T09:15:18;54.17;;;28.48;;
39880;SDS011;25554;44.954;10.068;2022-11-03T09:20:11;55.33;;;28.90;;
39880;SDS011;25554;44.954;10.068;2022-11-03T09:22:37;54.92;;;30.02;;
39880;SDS011;25554;44.954;10.068;2022-11-03T09:27:30;55.58;;;28.17;;
39880;SDS011;25554;44.954;10.068;2022-11-03T09:32:23;60.13;;;29.38;;
39880;SDS011;25554;44.954;10.068;2022-11-03T09:34:50;56.05;;;28.08;;
39880;SDS011;25554;44.954;10.068;2022-11-03T09:37:16;50.28;;;27.27;;
39880;SDS011;25554;44.954;10.068;2022-11-03T09:42:10;53.47;;;28.08;;
39880;SDS011;25554;44.954;10.068;2022-11-03T09:44:37;59.08;;;29.63;;
39880;SDS011;25554;44.954;10.068;2022-11-03T09:47:04;52.50;;;29.08;;
39880;SDS011;25554;44.954;10.068;2022-11-03T09:49:31;53.85;;;27.35;;
39880;SDS011;25554;44.954;10.068;2022-11-03T09:52:02;49.15;;;27.17;;
39880;SDS011;25554;44.954;10.068;2022-11-03T09:54:29;53.20;;;28.17;;
39880;SDS011;25554;44.954;10.068;2022-11-03T09:56:57;56.92;;;29.40;;
39880;SDS011;25554;44.954;10.068;2022-11-03T09:59:34;54.30;;;27.67;;
39880;SDS011;25554;44.954;10.068;2022-11-03T10:02:02;57.90;;;27.70;;
39880;SDS011;25554;44.954;10.068;2022-11-03T10:04:28;53.63;;;27.35;;
39880;SDS011;25554;44.954;10.068;2022-11-03T10:06:57;53.45;;;27.92;;
39880;SDS011;25554;44.954;10.068;2022-11-03T10:09:23;55.80;;;29.50;;
39880;SDS011;25554;44.954;10.068;2022-11-03T10:11:53;49.75;;;25.95;;
39880;SDS011;25554;44.954;10.068;2022-11-03T10:14:20;52.38;;;26.27;;
39880;SDS011;25554;44.954;10.068;2022-11-03T10:16:57;48.95;;;25.52;;
39880;SDS011;25554;44.954;10.068;2022-11-03T10:19:26;43.78;;;23.42;;
39880;SDS011;25554;44.954;10.068;2022-11-03T10:21:53;44.60;;;23.90;;
39880;SDS011;25554;44.954;10.068;2022-11-03T10:26:47;47.78;;;24.40;;
39880;SDS011;25554;44.954;10.068;2022-11-03T10:29:19;45.83;;;25.50;;
39880;SDS011;25554;44.954;10.068;2022-11-03T10:31:48;43.28;;;24.67;;
39880;SDS011;25554;44.954;10.068;2022-11-03T10:39:42;38.42;;;22.17;;
39880;SDS011;25554;44.954;10.068;2022-11-03T10:42:28;42.10;;;24.85;;
39880;SDS011;25554;44.954;10.068;2022-11-03T10:45:08;44.05;;;23.63;;
39880;SDS011;25554;44.954;10.068;2022-11-03T10:47:42;38.97;;;22.65;;
39880;SDS011;25554;44.954;10.068;2022-11-03T10:50:22;50.97;;;26.10;;
39880;SDS011;25554;44.954;10.068;2022-11-03T10:52:50;37.55;;;21.98;;
39880;SDS011;25554;44.954;10.068;2022-11-03T10:55:17;46.17;;;25.13;;
39880;SDS011;25554;44.954;10.068;2022-11-03T10:57:45;41.92;;;24.60;;
39880;SDS011;25554;44.954;10.068;2022-11-03T11:00:12;44.33;;;23.98;;
39880;SDS011;25554;44.954;10.068;2022-11-03T11:02:41;39.60;;;21.90;;
39880;SDS011;25554;44.954;10.068;2022-11-03T11:05:19;42.58;;;23.70;;
39880;SDS011;25554;44.954;10.068;2022-11-03T11:07:48;42.55;;;24.73;;
39880;SDS011;25554;44.954;10.068;2022-11-03T11:10:17;49.25;;;28.90;;
39880;SDS011;25554;44.954;10.068;2022-11-03T11:15:48;43.95;;;24.55;;
39880;SDS011;25554;44.954;10.068;2022-11-03T11:20:52;55.42;;;29.83;;
39880;SDS011;25554;44.954;10.068;2022-11-03T11:28:37;44.03;;;24.05;;
39880;SDS011;25554;44.954;10.068;2022-11-03T11:36:48;47.45;;;25.73;;
39880;SDS011;25554;44.954;10.068;2022-11-03T11:42:10;49.65;;;24.70;;
39880;SDS011;25554;44.954;10.068;2022-11-03T11:58:03;41.05;;;22.60;;
39880;SDS011;25554;44.954;10.068;2022-11-03T12:00:32;36.92;;;22.45;;
39880;SDS011;25554;44.954;10.068;2022-11-03T12:03:00;38.88;;;20.95;;
39880;SDS011;25554;44.954;10.068;2022-11-03T12:05:31;38.13;;;21.92;;
39880;SDS011;25554;44.954;10.068;2022-11-03T12:08:00;44.15;;;22.15;;
39880;SDS011;25554;44.954;10.068;2022-11-03T12:10:27;34.30;;;20.77;;
39880;SDS011;25554;44.954;10.068;2022-11-03T12:12:56;37.30;;;21.75;;
39880;SDS011;25554;44.954;10.068;2022-11-03T12:18:31;32.63;;;20.45;;
39880;SDS011;25554;44.954;10.068;2022-11-03T12:21:00;37.53;;;20.08;;
39880;SDS011;25554;44.954;10.068;2022-11-03T12:23:40;29.15;;;18.55;;
39880;SDS011;25554;44.954;10.068;2022-11-03T12:28:52;26.67;;;17.27;;
39880;SDS011;25554;44.954;10.068;2022-11-03T12:31:18;29.42;;;17.75;;
39880;SDS011;25554;44.954;10.068;2022-11-03T12:33:45;27.73;;;17.52;;
39880;SDS011;25554;44.954;10.068;2022-11-03T12:38:38;27.70;;;16.33;;
39880;SDS011;25554;44.954;10.068;2022-11-03T12:43:46;26.30;;;17.02;;
39880;SDS011;25554;44.954;10.068;2022-11-03T12:46:14;31.92;;;18.88;;
39880;SDS011;25554;44.954;10.068;2022-11-03T12:48:45;33.08;;;19.10;;
39880;SDS011;25554;44.954;10.068;2022-11-03T12:51:16;26.25;;;16.48;;
39880;SDS011;25554;44.954;10.068;2022-11-03T12:53:43;31.23;;;18.92;;
39880;SDS011;25554;44.954;10.068;2022-11-03T12:56:11;29.92;;;18.02;;
39880;SDS011;25554;44.954;10.068;2022-11-03T12:58:38;32.35;;;18.35;;
39880;SDS011;25554;44.954;10.068;2022-11-03T13:03:32;29.23;;;16.25;;
39880;SDS011;25554;44.954;10.068;2022-11-03T13:05:59;33.55;;;17.10;;
39880;SDS011;25554;44.954;10.068;2022-11-03T13:08:32;27.60;;;16.55;;
39880;SDS011;25554;44.954;10.068;2022-11-03T13:10:58;27.45;;;16.27;;
39880;SDS011;25554;44.954;10.068;2022-11-03T13:13:25;27.10;;;16.08;;
39880;SDS011;25554;44.954;10.068;2022-11-03T13:18:18;30.30;;;16.95;;
39880;SDS011;25554;44.954;10.068;2022-11-03T13:20:44;31.13;;;18.33;;
39880;SDS011;25554;44.954;10.068;2022-11-03T13:25:37;27.20;;;15.75;;
39880;SDS011;25554;44.954;10.068;2022-11-03T13:28:04;30.88;;;17.92;;
39880;SDS011;25554;44.954;10.068;2022-11-03T13:30:31;30.98;;;17.20;;
39880;SDS011;25554;44.954;10.068;2022-11-03T13:32:58;27.25;;;17.40;;
39880;SDS011;25554;44.954;10.068;2022-11-03T13:35:25;32.10;;;17.33;;
39880;SDS011;25554;44.954;10.068;2022-11-03T13:40:17;30.50;;;16.75;;
39880;SDS011;25554;44.954;10.068;2022-11-03T13:42:44;31.42;;;16.52;;
39880;SDS011;25554;44.954;10.068;2022-11-03T13:47:37;25.33;;;14.68;;
39880;SDS011;25554;44.954;10.068;2022-11-03T13:52:29;23.80;;;14.50;;
39880;SDS011;25554;44.954;10.068;2022-11-03T13:57:22;22.02;;;12.93;;
39880;SDS011;25554;44.954;10.068;2022-11-03T14:02:16;26.23;;;14.82;;
39880;SDS011;25554;44.954;10.068;2022-11-03T14:07:09;33.63;;;15.48;;
39880;SDS011;25554;44.954;10.068;2022-11-03T14:09:35;28.52;;;16.17;;
39880;SDS011;25554;44.954;10.068;2022-11-03T14:14:46;26.73;;;16.38;;
39880;SDS011;25554;44.954;10.068;2022-11-03T14:19:39;27.55;;;16.52;;
39880;SDS011;25554;44.954;10.068;2022-11-03T14:24:31;33.75;;;17.67;;
39880;SDS011;25554;44.954;10.068;2022-11-03T14:26:58;39.55;;;21.52;;
39880;SDS011;25554;44.954;10.068;2022-11-03T14:31:51;30.90;;;18.13;;
39880;SDS011;25554;44.954;10.068;2022-11-03T14:34:19;34.47;;;19.83;;
39880;SDS011;25554;44.954;10.068;2022-11-03T14:39:11;34.83;;;19.17;;
39880;SDS011;25554;44.954;10.068;2022-11-03T14:41:38;40.92;;;20.65;;
39880;SDS011;25554;44.954;10.068;2022-11-03T14:44:23;36.10;;;19.83;;
39880;SDS011;25554;44.954;10.068;2022-11-03T14:46:49;34.28;;;19.90;;
39880;SDS011;25554;44.954;10.068;2022-11-03T14:51:42;39.65;;;21.67;;
39880;SDS011;25554;44.954;10.068;2022-11-03T14:56:34;40.15;;;20.85;;
39880;SDS011;25554;44.954;10.068;2022-11-03T14:59:01;43.53;;;22.33;;
39880;SDS011;25554;44.954;10.068;2022-11-03T15:03:54;40.00;;;20.92;;
39880;SDS011;25554;44.954;10.068;2022-11-03T15:08:46;35.10;;;20.25;;
39880;SDS011;25554;44.954;10.068;2022-11-03T15:11:13;39.03;;;20.67;;
39880;SDS011;25554;44.954;10.068;2022-11-03T15:16:05;37.72;;;20.73;;
39880;SDS011;25554;44.954;10.068;2022-11-03T15:18:32;41.72;;;21.50;;
39880;SDS011;25554;44.954;10.068;2022-11-03T15:23:25;42.85;;;21.98;;
39880;SDS011;25554;44.954;10.068;2022-11-03T15:25:53;39.17;;;21.88;;
39880;SDS011;25554;44.954;10.068;2022-11-03T15:28:20;36.22;;;21.73;;
39880;SDS011;25554;44.954;10.068;2022-11-03T15:30:46;39.17;;;22.42;;
39880;SDS011;25554;44.954;10.068;2022-11-03T15:35:40;41.20;;;22.20;;
39880;SDS011;25554;44.954;10.068;2022-11-03T15:38:07;42.35;;;21.63;;
39880;SDS011;25554;44.954;10.068;2022-11-03T15:43:00;41.92;;;21.92;;
39880;SDS011;25554;44.954;10.068;2022-11-03T15:45:26;41.70;;;22.63;;
39880;SDS011;25554;44.954;10.068;2022-11-03T15:50:19;38.13;;;21.10;;
39880;SDS011;25554;44.954;10.068;2022-11-03T15:55:11;43.08;;;23.38;;
39880;SDS011;25554;44.954;10.068;2022-11-03T16:00:04;42.25;;;21.67;;
39880;SDS011;25554;44.954;10.068;2022-11-03T16:02:31;41.90;;;22.73;;
39880;SDS011;25554;44.954;10.068;2022-11-03T16:04:58;40.03;;;22.55;;
39880;SDS011;25554;44.954;10.068;2022-11-03T16:07:26;40.67;;;22.40;;
39880;SDS011;25554;44.954;10.068;2022-11-03T16:09:53;34.63;;;20.77;;
39880;SDS011;25554;44.954;10.068;2022-11-03T16:12:21;44.03;;;23.10;;
39880;SDS011;25554;44.954;10.068;2022-11-03T16:14:49;46.47;;;23.13;;
39880;SDS011;25554;44.954;10.068;2022-11-03T16:17:16;48.20;;;23.67;;
39880;SDS011;25554;44.954;10.068;2022-11-03T16:19:43;49.13;;;24.38;;
39880;SDS011;25554;44.954;10.068;2022-11-03T16:22:09;45.80;;;24.27;;
39880;SDS011;25554;44.954;10.068;2022-11-03T16:24:36;39.33;;;23.05;;
39880;SDS011;25554;44.954;10.068;2022-11-03T16:29:29;46.67;;;23.60;;
39880;SDS011;25554;44.954;10.068;2022-11-03T16:34:22;46.83;;;23.27;;
39880;SDS011;25554;44.954;10.068;2022-11-03T16:36:49;47.78;;;22.88;;
39880;SDS011;25554;44.954;10.068;2022-11-03T16:41:41;46.80;;;22.63;;
39880;SDS011;25554;44.954;10.068;2022-11-03T16:46:34;44.75;;;22.13;;
39880;SDS011;25554;44.954;10.068;2022-11-03T16:51:27;51.40;;;23.60;;
39880;SDS011;25554;44.954;10.068;2022-11-03T16:53:54;44.83;;;24.80;;
39880;SDS011;25554;44.954;10.068;2022-11-03T16:56:22;47.58;;;25.40;;
39880;SDS011;25554;44.954;10.068;2022-11-03T16:58:49;45.28;;;24.52;;
39880;SDS011;25554;44.954;10.068;2022-11-03T17:03:41;48.85;;;24.67;;
39880;SDS011;25554;44.954;10.068;2022-11-03T17:08:34;49.22;;;24.95;;
39880;SDS011;25554;44.954;10.068;2022-11-03T17:13:27;49.75;;;24.48;;
39880;SDS011;25554;44.954;10.068;2022-11-03T17:15:54;51.08;;;24.98;;
39880;SDS011;25554;44.954;10.068;2022-11-03T17:20:46;49.92;;;25.88;;
39880;SDS011;25554;44.954;10.068;2022-11-03T17:25:39;49.50;;;25.52;;
39880;SDS011;25554;44.954;10.068;2022-11-03T17:30:34;52.10;;;26.23;;
39880;SDS011;25554;44.954;10.068;2022-11-03T17:33:08;50.97;;;26.50;;
39880;SDS011;25554;44.954;10.068;2022-11-03T17:35:40;51.75;;;27.80;;
39880;SDS011;25554;44.954;10.068;2022-11-03T17:38:16;53.40;;;26.50;;
39880;SDS011;25554;44.954;10.068;2022-11-03T17:40:44;55.33;;;28.65;;
39880;SDS011;25554;44.954;10.068;2022-11-03T17:43:16;53.78;;;26.92;;
39880;SDS011;25554;44.954;10.068;2022-11-03T17:45:51;54.42;;;26.73;;
39880;SDS011;25554;44.954;10.068;2022-11-03T17:50:47;62.42;;;28.17;;
39880;SDS011;25554;44.954;10.068;2022-11-03T17:53:18;57.15;;;28.20;;
39880;SDS011;25554;44.954;10.068;2022-11-03T17:55:48;60.10;;;28.88;;
39880;SDS011;25554;44.954;10.068;2022-11-03T17:58:15;60.45;;;30.40;;
39880;SDS011;25554;44.954;10.068;2022-11-03T18:00:42;53.53;;;25.83;;
39880;SDS011;25554;44.954;10.068;2022-11-03T18:03:10;56.17;;;28.58;;
39880;SDS011;25554;44.954;10.068;2022-11-03T18:05:39;66.88;;;29.75;;
39880;SDS011;25554;44.954;10.068;2022-11-03T18:08:08;62.65;;;29.92;;
39880;SDS011;25554;44.954;10.068;2022-11-03T18:10:41;67.95;;;30.55;;
39880;SDS011;25554;44.954;10.068;2022-11-03T18:13:15;65.15;;;30.25;;
39880;SDS011;25554;44.954;10.068;2022-11-03T18:18:39;65.25;;;31.88;;
39880;SDS011;25554;44.954;10.068;2022-11-03T18:21:11;63.20;;;30.80;;
39880;SDS011;25554;44.954;10.068;2022-11-03T18:23:42;70.38;;;32.72;;
39880;SDS011;25554;44.954;10.068;2022-11-03T18:26:12;69.13;;;32.58;;
39880;SDS011;25554;44.954;10.068;2022-11-03T18:28:41;68.88;;;31.23;;
39880;SDS011;25554;44.954;10.068;2022-11-03T18:34:04;74.70;;;32.08;;
39880;SDS011;25554;44.954;10.068;2022-11-03T18:36:36;71.00;;;31.55;;
39880;SDS011;25554;44.954;10.068;2022-11-03T18:39:03;73.57;;;32.78;;
39880;SDS011;25554;44.954;10.068;2022-11-03T18:41:30;73.70;;;34.58;;
39880;SDS011;25554;44.954;10.068;2022-11-03T18:44:14;77.07;;;35.15;;
39880;SDS011;25554;44.954;10.068;2022-11-03T18:46:49;79.07;;;35.33;;
39880;SDS011;25554;44.954;10.068;2022-11-03T18:49:16;70.90;;;33.45;;
39880;SDS011;25554;44.954;10.068;2022-11-03T18:51:56;73.65;;;34.70;;
39880;SDS011;25554;44.954;10.068;2022-11-03T18:54:24;85.15;;;37.50;;